createdAt,value
2022-11-30T00:02:04.743Z,19.58
2022-11-30T00:04:32.854Z,19.65
2022-11-30T00:07:03.380Z,18.05
2022-11-30T00:09:32.115Z,17.65
2022-11-30T00:12:00.214Z,17.23
2022-11-30T00:14:28.416Z,16.85
2022-11-30T00:16:56.714Z,17.27
2022-11-30T00:19:24.749Z,17.60
2022-11-30T00:21:52.751Z,17.27
2022-11-30T00:24:22.285Z,18.00
2022-11-30T00:26:53.401Z,16.85
2022-11-30T00:29:21.444Z,19.15
2022-11-30T00:31:49.448Z,20.05
2022-11-30T00:34:17.505Z,18.00
2022-11-30T00:36:45.648Z,19.85
2022-11-30T00:39:13.661Z,18.15
2022-11-30T00:41:45.724Z,19.52
2022-11-30T00:44:13.751Z,19.25
2022-11-30T00:46:41.725Z,18.30
2022-11-30T00:49:09.711Z,20.10
2022-11-30T00:51:39.024Z,19.05
2022-11-30T00:54:07.303Z,19.50
2022-11-30T00:56:35.318Z,18.48
2022-11-30T00:59:04.977Z,20.17
2022-11-30T01:01:33.360Z,19.88
2022-11-30T01:04:01.282Z,20.50
2022-11-30T01:06:29.404Z,21.02
2022-11-30T01:08:57.703Z,21.08
2022-11-30T01:11:27.896Z,21.75
2022-11-30T01:16:29.582Z,23.30
2022-11-30T01:18:57.956Z,23.88
2022-11-30T01:21:28.912Z,21.40
2022-11-30T01:23:57.050Z,21.88
2022-11-30T01:26:25.809Z,20.75
2022-11-30T01:28:54.858Z,19.95
2022-11-30T01:31:25.375Z,19.92
2022-11-30T01:33:55.394Z,18.67
2022-11-30T01:36:25.526Z,19.27
2022-11-30T01:41:24.661Z,20.95
2022-11-30T01:43:54.258Z,23.13
2022-11-30T01:46:37.027Z,29.55
2022-11-30T01:49:15.494Z,27.17
2022-11-30T01:51:47.781Z,31.65
2022-11-30T01:54:19.717Z,27.58
2022-11-30T01:56:52.007Z,23.20
2022-11-30T01:59:25.594Z,27.65
2022-11-30T02:01:56.200Z,27.73
2022-11-30T02:04:28.719Z,22.65
2022-11-30T02:06:58.286Z,22.48
2022-11-30T02:09:28.160Z,22.58
2022-11-30T02:11:58.188Z,19.70
2022-11-30T02:14:33.765Z,19.83
2022-11-30T02:17:15.526Z,22.10
2022-11-30T02:20:17.372Z,21.20
2022-11-30T02:23:04.558Z,20.17
2022-11-30T02:25:44.493Z,20.10
2022-11-30T02:28:24.674Z,21.65
2022-11-30T02:33:28.893Z,21.45
2022-11-30T02:35:58.242Z,22.75
2022-11-30T02:38:28.593Z,21.73
2022-11-30T02:40:56.930Z,22.02
2022-11-30T02:43:28.599Z,21.02
2022-11-30T02:46:04.149Z,20.80
2022-11-30T02:48:40.213Z,19.30
2022-11-30T02:51:11.853Z,19.60
2022-11-30T02:53:40.308Z,18.23
2022-11-30T02:56:08.833Z,19.55
2022-11-30T02:58:37.106Z,18.35
2022-11-30T03:01:09.492Z,19.05
2022-11-30T03:03:37.984Z,20.55
2022-11-30T03:06:06.249Z,19.85
2022-11-30T03:08:34.301Z,20.45
2022-11-30T03:11:03.081Z,20.80
2022-11-30T03:13:31.868Z,18.95
2022-11-30T03:16:00.055Z,18.85
2022-11-30T03:18:29.528Z,17.90
2022-11-30T03:20:58.512Z,19.83
2022-11-30T03:23:26.797Z,18.65
2022-11-30T03:25:58.858Z,17.75
2022-11-30T03:28:27.000Z,20.98
2022-11-30T03:30:55.699Z,18.90
2022-11-30T03:33:23.686Z,18.88
2022-11-30T03:36:02.347Z,17.60
2022-11-30T03:38:30.497Z,17.60
2022-11-30T03:41:02.709Z,18.30
2022-11-30T03:43:30.950Z,17.40
2022-11-30T03:45:59.021Z,17.33
2022-11-30T03:48:27.548Z,16.73
2022-11-30T03:50:56.000Z,16.50
2022-11-30T03:53:27.098Z,15.80
2022-11-30T03:55:56.658Z,16.58
2022-11-30T03:58:25.739Z,18.10
2022-11-30T04:01:00.843Z,17.60
2022-11-30T04:03:29.553Z,17.00
2022-11-30T04:05:57.658Z,16.67
2022-11-30T04:08:27.628Z,16.95
2022-11-30T04:10:58.160Z,16.85
2022-11-30T04:13:28.273Z,15.05
2022-11-30T04:15:57.545Z,14.10
2022-11-30T04:18:27.493Z,15.13
2022-11-30T04:20:57.305Z,15.35
2022-11-30T04:23:30.397Z,13.73
2022-11-30T04:25:59.118Z,13.80
2022-11-30T04:28:27.028Z,12.88
2022-11-30T04:30:55.703Z,12.85
2022-11-30T04:33:23.928Z,13.85
2022-11-30T04:35:55.256Z,12.38
2022-11-30T04:38:23.962Z,11.73
2022-11-30T04:40:53.800Z,11.80
2022-11-30T04:43:22.522Z,12.93
2022-11-30T04:45:50.941Z,12.25
2022-11-30T04:48:20.005Z,11.65
2022-11-30T04:50:48.075Z,11.50
2022-11-30T04:53:18.521Z,11.43
2022-11-30T04:55:46.583Z,11.70
2022-11-30T04:58:16.053Z,10.68
2022-11-30T05:00:44.065Z,11.60
2022-11-30T05:03:12.196Z,10.00
2022-11-30T05:05:40.363Z,9.75
2022-11-30T05:08:08.341Z,9.73
2022-11-30T05:10:36.450Z,9.63
2022-11-30T05:13:04.407Z,10.35
2022-11-30T05:15:34.283Z,13.52
2022-11-30T05:18:03.321Z,17.77
2022-11-30T05:20:31.349Z,19.50
2022-11-30T05:22:59.499Z,18.92
2022-11-30T05:25:27.565Z,18.23
2022-11-30T05:27:55.523Z,19.02
2022-11-30T05:30:23.623Z,18.30
2022-11-30T05:32:54.258Z,18.85
2022-11-30T05:35:22.286Z,19.33
2022-11-30T05:37:50.504Z,19.42
2022-11-30T05:40:18.863Z,19.70
2022-11-30T05:42:46.962Z,18.95
2022-11-30T05:45:15.288Z,18.73
2022-11-30T05:47:43.408Z,18.20
2022-11-30T05:50:12.984Z,19.60
2022-11-30T05:52:40.961Z,19.13
2022-11-30T05:55:09.440Z,19.15
2022-11-30T05:57:37.997Z,19.40
2022-11-30T06:00:07.303Z,17.67
2022-11-30T06:02:42.404Z,18.50
2022-11-30T06:05:12.212Z,17.13
2022-11-30T06:07:40.395Z,18.17
2022-11-30T06:10:09.626Z,19.30
2022-11-30T06:12:37.638Z,18.45
2022-11-30T06:15:06.499Z,19.63
2022-11-30T06:17:37.617Z,19.27
2022-11-30T06:20:06.259Z,17.55
2022-11-30T06:22:35.763Z,18.35
2022-11-30T06:25:04.350Z,18.45
2022-11-30T06:27:32.518Z,17.55
2022-11-30T06:30:01.613Z,17.65
2022-11-30T06:32:29.707Z,19.02
2022-11-30T06:34:57.872Z,22.17
2022-11-30T06:37:25.738Z,22.63
2022-11-30T06:40:10.500Z,20.05
2022-11-30T06:42:39.236Z,17.63
2022-11-30T06:45:09.043Z,21.80
2022-11-30T06:47:37.100Z,21.80
2022-11-30T06:50:06.159Z,21.23
2022-11-30T06:52:34.292Z,22.75
2022-11-30T06:55:04.260Z,20.02
2022-11-30T06:57:32.424Z,19.90
2022-11-30T07:00:00.571Z,18.17
2022-11-30T07:02:28.753Z,22.67
2022-11-30T07:04:56.779Z,19.77
2022-11-30T07:07:24.853Z,20.92
2022-11-30T07:09:53.293Z,20.98
2022-11-30T07:12:22.903Z,19.60
2022-11-30T07:14:52.790Z,20.98
2022-11-30T07:17:21.074Z,20.75
2022-11-30T07:19:49.642Z,22.02
2022-11-30T07:22:17.589Z,23.65
2022-11-30T07:25:02.959Z,19.75
2022-11-30T07:27:32.389Z,21.08
2022-11-30T07:30:00.358Z,20.90
2022-11-30T07:32:28.366Z,20.90
2022-11-30T07:34:56.480Z,23.83
2022-11-30T07:37:24.413Z,20.60
2022-11-30T07:39:52.351Z,23.48
2022-11-30T07:42:20.393Z,21.98
2022-11-30T07:44:56.939Z,22.05
2022-11-30T07:47:26.703Z,20.38
2022-11-30T07:49:54.705Z,20.25
2022-11-30T07:52:22.752Z,20.02
2022-11-30T07:54:51.066Z,20.30
2022-11-30T07:57:19.202Z,20.23
2022-11-30T07:59:47.799Z,19.85
2022-11-30T08:02:17.344Z,19.83
2022-11-30T08:04:48.684Z,19.50
2022-11-30T08:07:17.429Z,20.60
2022-11-30T08:09:46.176Z,22.10
2022-11-30T08:12:14.220Z,20.63
2022-11-30T08:15:17.529Z,20.83
2022-11-30T08:17:31.741Z,19.88
2022-11-30T08:20:00.117Z,20.20
2022-11-30T08:22:28.216Z,20.33
2022-11-30T08:24:56.299Z,20.55
2022-11-30T08:27:24.347Z,20.33
2022-11-30T08:29:52.816Z,23.10
2022-11-30T08:32:21.147Z,21.70
2022-11-30T08:34:50.760Z,18.85
2022-11-30T08:37:18.749Z,19.60
2022-11-30T08:39:46.743Z,19.08
2022-11-30T08:42:14.740Z,17.50
2022-11-30T08:44:43.005Z,17.90
2022-11-30T08:47:10.983Z,19.85
2022-11-30T08:49:39.117Z,18.67
2022-11-30T08:52:17.664Z,19.05
2022-11-30T08:54:47.807Z,17.40
2022-11-30T08:57:17.416Z,18.63
2022-11-30T08:59:45.577Z,18.67
2022-11-30T09:02:17.476Z,18.45
2022-11-30T09:04:47.521Z,17.98
2022-11-30T09:07:17.760Z,19.00
2022-11-30T09:09:45.968Z,18.67
2022-11-30T09:12:14.063Z,17.67
2022-11-30T09:14:42.705Z,19.35
2022-11-30T09:17:10.783Z,18.70
2022-11-30T09:19:38.734Z,18.67
2022-11-30T09:22:06.836Z,19.23
2022-11-30T09:24:38.200Z,17.67
2022-11-30T09:27:06.247Z,17.02
2022-11-30T09:29:34.218Z,17.65
2022-11-30T09:32:02.361Z,16.45
2022-11-30T09:34:30.410Z,16.63
2022-11-30T09:36:58.597Z,14.90
2022-11-30T09:39:26.752Z,14.38
2022-11-30T09:42:17.263Z,15.13
2022-11-30T09:44:53.035Z,16.17
2022-11-30T09:47:39.157Z,17.38
2022-11-30T09:50:15.610Z,38.83
2022-11-30T09:52:48.403Z,61.58
2022-11-30T09:55:24.134Z,23.75
2022-11-30T09:57:59.693Z,17.38
2022-11-30T10:00:29.967Z,17.88
2022-11-30T10:03:03.226Z,17.38
2022-11-30T10:05:46.902Z,18.40
2022-11-30T10:08:44.837Z,15.63
2022-11-30T10:11:32.908Z,17.73
2022-11-30T10:14:19.222Z,17.92
2022-11-30T10:16:59.136Z,14.30
2022-11-30T10:19:41.673Z,14.25
2022-11-30T10:22:20.669Z,16.08
2022-11-30T10:25:03.881Z,15.45
2022-11-30T10:27:49.605Z,16.13
2022-11-30T10:30:22.463Z,14.82
2022-11-30T10:32:54.062Z,14.77
2022-11-30T10:35:31.409Z,15.18
2022-11-30T10:38:04.500Z,14.55
2022-11-30T10:40:39.706Z,13.82
2022-11-30T10:43:18.112Z,14.38
2022-11-30T10:45:49.358Z,13.63
2022-11-30T10:48:21.932Z,15.45
2022-11-30T10:50:50.084Z,15.35
2022-11-30T10:53:18.227Z,15.32
2022-11-30T10:55:55.050Z,14.77
2022-11-30T10:58:28.706Z,15.25
2022-11-30T11:01:03.715Z,13.90
2022-11-30T11:03:32.595Z,14.10
2022-11-30T11:06:07.735Z,13.98
2022-11-30T11:08:36.456Z,14.45
2022-11-30T11:11:06.190Z,14.52
2022-11-30T11:13:39.907Z,17.08
2022-11-30T11:16:11.176Z,18.17
2022-11-30T11:18:53.553Z,31.60
2022-11-30T11:21:23.855Z,16.27
2022-11-30T11:26:24.255Z,16.92
2022-11-30T11:28:54.137Z,17.45
2022-11-30T11:31:44.150Z,18.75
2022-11-30T11:34:25.621Z,19.13
2022-11-30T11:37:06.304Z,19.15
2022-11-30T11:39:34.639Z,18.00
2022-11-30T11:42:02.792Z,17.92
2022-11-30T11:44:31.818Z,18.58
2022-11-30T11:47:03.591Z,16.92
2022-11-30T11:49:34.123Z,17.85
2022-11-30T11:52:04.540Z,17.92
2022-11-30T11:54:36.779Z,17.02
2022-11-30T11:57:08.498Z,17.42
2022-11-30T11:59:41.975Z,16.63
2022-11-30T12:02:27.266Z,16.58
2022-11-30T12:04:59.412Z,17.73
2022-11-30T12:07:33.365Z,17.45
2022-11-30T12:10:50.183Z,17.95
2022-11-30T12:13:13.105Z,19.95
2022-11-30T12:15:52.826Z,21.35
2022-11-30T12:18:26.061Z,18.27
2022-11-30T12:20:59.355Z,17.88
2022-11-30T12:23:45.947Z,18.83
2022-11-30T12:26:22.751Z,17.90
2022-11-30T12:29:04.246Z,18.90
2022-11-30T12:31:42.596Z,19.00
2022-11-30T12:34:20.089Z,19.08
2022-11-30T12:36:57.926Z,20.92
2022-11-30T12:39:33.552Z,18.25
2022-11-30T12:42:08.103Z,22.17
2022-11-30T12:44:47.020Z,19.73
2022-11-30T12:47:29.832Z,21.00
2022-11-30T12:50:10.116Z,17.88
2022-11-30T12:55:26.430Z,15.18
2022-11-30T12:58:01.014Z,16.35
2022-11-30T13:00:40.801Z,16.77
2022-11-30T13:03:36.543Z,17.90
2022-11-30T13:06:13.154Z,17.25
2022-11-30T13:08:49.535Z,17.88
2022-11-30T13:11:22.595Z,18.17
2022-11-30T13:13:55.621Z,16.30
2022-11-30T13:16:25.654Z,15.95
2022-11-30T13:19:01.201Z,21.02
2022-11-30T13:21:37.661Z,18.13
2022-11-30T13:24:12.934Z,15.25
2022-11-30T13:26:48.460Z,16.38
2022-11-30T13:29:32.845Z,17.25
2022-11-30T13:32:22.256Z,16.98
2022-11-30T13:35:35.313Z,18.30
2022-11-30T13:38:35.161Z,17.17
2022-11-30T13:41:00.258Z,17.83
2022-11-30T13:43:32.410Z,19.20
2022-11-30T13:46:16.089Z,18.38
2022-11-30T13:48:45.669Z,19.30
2022-11-30T13:51:35.809Z,21.05
2022-11-30T13:54:37.135Z,22.08
2022-11-30T13:57:18.111Z,17.88
2022-11-30T13:59:49.354Z,18.83
2022-11-30T14:02:53.747Z,18.20
2022-11-30T14:05:35.888Z,18.67
2022-11-30T14:08:32.372Z,19.80
2022-11-30T14:11:38.108Z,18.67
2022-11-30T14:14:45.648Z,21.45
2022-11-30T14:17:27.601Z,20.95
2022-11-30T14:20:00.328Z,19.80
2022-11-30T14:22:30.568Z,20.25
2022-11-30T14:27:30.032Z,19.77
2022-11-30T14:30:04.493Z,21.67
2022-11-30T14:32:39.081Z,19.98
2022-11-30T14:35:11.587Z,20.27
2022-11-30T14:37:46.972Z,22.95
2022-11-30T14:40:19.247Z,22.20
2022-11-30T14:42:49.935Z,21.75
2022-11-30T14:45:25.086Z,20.40
2022-11-30T14:47:56.133Z,26.38
2022-11-30T14:50:26.625Z,19.38
2022-11-30T14:53:07.363Z,22.92
2022-11-30T14:55:44.964Z,23.88
2022-11-30T14:58:23.492Z,23.15
2022-11-30T15:00:53.736Z,22.85
2022-11-30T15:05:56.560Z,25.88
2022-11-30T15:08:34.359Z,29.00
2022-11-30T15:11:07.143Z,31.13
2022-11-30T15:13:40.511Z,30.17
2022-11-30T15:16:19.647Z,26.92
2022-11-30T15:18:47.811Z,26.50
2022-11-30T15:21:20.157Z,29.35
2022-11-30T15:23:51.473Z,27.58
2022-11-30T15:26:25.710Z,29.55
2022-11-30T15:28:59.729Z,31.92
2022-11-30T15:31:36.773Z,36.20
2022-11-30T15:34:05.809Z,36.10
2022-11-30T15:36:35.950Z,37.20
2022-11-30T15:39:07.557Z,37.20
2022-11-30T15:41:37.105Z,40.53
2022-11-30T15:44:05.218Z,36.03
2022-11-30T15:46:42.759Z,36.60
2022-11-30T15:49:19.093Z,36.33
2022-11-30T15:51:54.479Z,43.95
2022-11-30T15:54:43.700Z,40.03
2022-11-30T15:57:12.596Z,39.95
2022-11-30T15:59:41.497Z,38.25
2022-11-30T16:02:26.932Z,40.00
2022-11-30T16:05:24.437Z,36.63
2022-11-30T16:07:55.232Z,35.33
2022-11-30T16:10:25.669Z,35.45
2022-11-30T16:15:24.076Z,33.53
2022-11-30T16:17:55.071Z,33.03
2022-11-30T16:20:24.136Z,32.58
2022-11-30T16:22:52.279Z,33.50
2022-11-30T16:25:22.720Z,32.47
2022-11-30T16:27:51.473Z,30.33
2022-11-30T16:30:22.509Z,31.88
2022-11-30T16:32:51.067Z,31.15
2022-11-30T16:35:24.415Z,30.58
2022-11-30T16:37:52.897Z,34.55
2022-11-30T16:40:21.581Z,31.65
2022-11-30T16:42:51.541Z,33.53
2022-11-30T16:45:22.210Z,35.55
2022-11-30T16:47:50.984Z,35.63
2022-11-30T16:50:20.451Z,36.25
2022-11-30T16:52:49.957Z,34.00
2022-11-30T16:55:20.844Z,54.10
2022-11-30T16:57:50.119Z,39.53
2022-11-30T17:00:20.824Z,50.83
2022-11-30T17:03:00.866Z,33.47
2022-11-30T17:05:30.476Z,57.13
2022-11-30T17:08:00.200Z,54.17
2022-11-30T17:10:28.534Z,43.35
2022-11-30T17:12:56.810Z,36.55
2022-11-30T17:15:25.535Z,34.78
2022-11-30T17:17:57.600Z,35.83
2022-11-30T17:20:26.002Z,33.47
2022-11-30T17:22:54.475Z,38.15
2022-11-30T17:25:25.165Z,36.13
2022-11-30T17:27:53.610Z,40.00
2022-11-30T17:30:23.909Z,34.97
2022-11-30T17:32:52.224Z,33.90
2022-11-30T17:35:20.662Z,34.30
2022-11-30T17:37:48.700Z,35.60
2022-11-30T17:40:17.038Z,35.22
2022-11-30T17:42:46.409Z,35.28
2022-11-30T17:45:14.417Z,35.80
2022-11-30T17:47:42.374Z,34.28
2022-11-30T17:50:11.516Z,35.03
2022-11-30T17:52:39.437Z,32.67
2022-11-30T17:55:08.490Z,33.08
2022-11-30T17:57:38.241Z,30.70
2022-11-30T18:00:09.653Z,28.73
2022-11-30T18:02:37.685Z,30.77
2022-11-30T18:05:06.441Z,29.58
2022-11-30T18:07:34.536Z,31.17
2022-11-30T18:10:02.701Z,29.67
2022-11-30T18:12:30.637Z,29.23
2022-11-30T18:14:59.079Z,29.65
2022-11-30T18:17:28.491Z,27.08
2022-11-30T18:19:56.439Z,28.23
2022-11-30T18:22:24.431Z,27.08
2022-11-30T18:24:52.454Z,26.20
2022-11-30T18:27:20.437Z,27.33
2022-11-30T18:29:48.438Z,29.40
2022-11-30T18:32:16.384Z,33.08
2022-11-30T18:34:49.818Z,31.60
2022-11-30T18:37:18.154Z,29.95
2022-11-30T18:39:46.134Z,27.88
2022-11-30T18:42:14.193Z,27.02
2022-11-30T18:44:42.375Z,29.00
2022-11-30T18:47:10.446Z,28.38
2022-11-30T18:49:38.364Z,29.20
2022-11-30T18:52:07.802Z,29.27
2022-11-30T18:54:36.282Z,26.33
2022-11-30T18:57:04.285Z,26.17
2022-11-30T18:59:32.482Z,26.27
2022-11-30T19:02:00.614Z,26.25
2022-11-30T19:04:28.621Z,28.33
2022-11-30T19:06:56.642Z,27.02
2022-11-30T19:09:26.149Z,26.45
2022-11-30T19:11:58.013Z,27.20
2022-11-30T19:14:25.942Z,25.55
2022-11-30T19:16:54.017Z,26.35
2022-11-30T19:19:22.742Z,25.63
2022-11-30T19:21:50.725Z,28.20
2022-11-30T19:24:18.703Z,26.45
2022-11-30T19:26:48.409Z,33.05
2022-11-30T19:29:16.341Z,31.17
2022-11-30T19:31:44.309Z,27.17
2022-11-30T19:34:13.443Z,24.17
2022-11-30T19:36:41.854Z,25.15
2022-11-30T19:39:11.285Z,26.85
2022-11-30T19:41:39.244Z,27.00
2022-11-30T19:44:13.635Z,25.67
2022-11-30T19:46:41.953Z,30.20
2022-11-30T19:49:11.267Z,27.65
2022-11-30T19:51:39.288Z,27.40
2022-11-30T19:54:07.529Z,22.83
2022-11-30T19:56:35.826Z,26.02
2022-11-30T19:59:05.511Z,24.70
2022-11-30T20:01:35.513Z,27.17
2022-11-30T20:04:04.323Z,26.45
2022-11-30T20:06:34.029Z,26.77
2022-11-30T20:09:01.974Z,26.88
2022-11-30T20:11:30.400Z,27.10
2022-11-30T20:13:58.705Z,27.42
2022-11-30T20:16:27.206Z,26.80
2022-11-30T20:19:00.785Z,26.20
2022-11-30T20:21:30.744Z,26.08
2022-11-30T20:24:01.042Z,25.67
2022-11-30T20:29:00.395Z,25.48
2022-11-30T20:31:30.280Z,24.38
2022-11-30T20:33:59.942Z,21.92
2022-11-30T20:36:28.063Z,22.92
2022-11-30T20:38:56.175Z,22.40
2022-11-30T20:41:25.637Z,22.98
2022-11-30T20:43:53.985Z,22.90
2022-11-30T20:46:24.193Z,23.10
2022-11-30T20:51:33.217Z,20.20
2022-11-30T20:54:03.730Z,20.63
2022-11-30T20:56:31.905Z,20.48
2022-11-30T20:59:02.625Z,19.77
2022-11-30T21:01:31.514Z,20.15
2022-11-30T21:04:00.727Z,21.13
2022-11-30T21:06:30.995Z,21.40
2022-11-30T21:08:59.523Z,23.15
2022-11-30T21:11:28.964Z,21.70
2022-11-30T21:13:58.530Z,24.00
2022-11-30T21:16:29.685Z,22.08
2022-11-30T21:18:59.828Z,23.13
2022-11-30T21:21:31.210Z,23.42
2022-11-30T21:24:01.170Z,22.77
2022-11-30T21:26:31.464Z,21.75
2022-11-30T21:31:29.569Z,22.80
2022-11-30T21:33:57.565Z,24.05
2022-11-30T21:36:25.823Z,26.27
2022-11-30T21:39:05.720Z,61.83
2022-11-30T21:41:35.837Z,24.88
2022-11-30T21:44:04.338Z,26.35
2022-11-30T21:46:32.695Z,27.58
2022-11-30T21:49:01.443Z,29.23
2022-11-30T21:51:31.734Z,28.67
2022-11-30T21:54:04.225Z,30.83
2022-11-30T21:56:34.935Z,28.23
2022-11-30T21:59:04.922Z,30.65
2022-11-30T22:01:34.985Z,31.13
2022-11-30T22:04:04.869Z,32.17
2022-11-30T22:06:35.795Z,33.60
2022-11-30T22:09:08.743Z,34.50
2022-11-30T22:11:38.996Z,35.35
2022-11-30T22:16:36.520Z,35.17
2022-11-30T22:19:06.706Z,36.03
2022-11-30T22:21:35.259Z,60.65
2022-11-30T22:24:06.568Z,42.33
2022-11-30T22:26:36.236Z,43.67
2022-11-30T22:29:06.539Z,45.20
2022-11-30T22:34:04.479Z,43.58
2022-11-30T22:36:34.101Z,46.47
2022-11-30T22:39:03.995Z,45.38
2022-11-30T22:41:33.997Z,48.17
2022-11-30T22:44:02.772Z,48.40
2022-11-30T22:46:33.600Z,49.85
2022-11-30T22:49:02.443Z,49.70
2022-11-30T22:51:32.451Z,54.72
2022-11-30T22:54:01.587Z,62.35
2022-11-30T22:56:36.462Z,49.78
2022-11-30T22:59:06.604Z,51.85
2022-11-30T23:01:36.548Z,52.00
2022-11-30T23:04:07.220Z,50.85
2022-11-30T23:06:36.184Z,51.80
2022-11-30T23:09:06.420Z,53.83
2022-11-30T23:11:36.825Z,51.25
2022-11-30T23:14:08.444Z,40.17
2022-11-30T23:16:37.808Z,56.35
2022-11-30T23:19:07.015Z,56.73
2022-11-30T23:21:41.351Z,60.80
2022-11-30T23:24:13.962Z,55.70
2022-11-30T23:26:43.877Z,56.47
2022-11-30T23:29:13.815Z,57.55
2022-11-30T23:31:43.951Z,60.03
2022-11-30T23:34:18.037Z,59.13
2022-11-30T23:36:46.551Z,59.42
2022-11-30T23:39:16.683Z,59.78
2022-11-30T23:41:46.291Z,59.38
2022-11-30T23:44:14.382Z,45.20
2022-11-30T23:46:42.759Z,58.45
2022-11-30T23:49:13.050Z,58.72
2022-11-30T23:54:11.567Z,57.20
2022-11-30T23:56:39.703Z,57.05
2022-11-30T23:59:09.022Z,57.67
